Nearby METAR Reports

 

PAEN - Kenai, Alaska, USA
Distance from station: ESE 2mi, 4km
Updated: Sat, 21-May-2022 5:53pm AKDT
Clear
Clear
 Wind from E
Wind: E 22 mph , 35 km/h, Gust: 26 mph , 43 km/h
Temperature: 64°F , 18°C
Dew Point: 19°F , -7°C
Humidity: 18%
Barometer: 30.06 inHg , 1017.9 hPa
Clouds: Clear
Visibility: 10 miles , 16 km
2022/05/22 01:53 PAEN 220153Z 08019G23KT 10SM CLR 18/M07 A3006 RMK AO2 SLP180 T01831067
PASX - Soldotna, Alaska, USA
Distance from station: SE 12mi, 19km
Updated: Sat, 21-May-2022 5:56pm AKDT
Clear
Clear
 Wind from E
Wind: E 17 mph , 28 km/h, Gust: 22 mph , 35 km/h
Temperature: 66°F , 19°C
Dew Point: 19°F , -7°C
Humidity: 17%
Barometer: 30.07 inHg , 1018.3 hPa
Clouds: Clear
Visibility: 10 miles , 16 km
2022/05/22 01:56 PASX 220156Z AUTO 09015G19KT 10SM CLR 19/M07 A3007 RMK AO2 SLP192 T01891067
 
PANC - Anchorage Intl, Alaska, USA
Distance from station: NE 59mi, 96km
Updated: Sat, 21-May-2022 5:53pm AKDT
Partly cloudy
Partly cloudy
 Wind from SSE
Wind: SSE 20 mph , 31 km/h, Gust: 32 mph , 52 km/h
Temperature: 64°F , 18°C
Dew Point: 28°F , -2°C
Humidity: 26%
Barometer: 30.07 inHg , 1018.3 hPa
Clouds: Partly cloudy
Visibility: 10 miles , 16 km
Cloud details: Few Clouds 14000 ft
Partly cloudy 20000 ft
2022/05/22 01:53 PANC 220153Z 15017G28KT 10SM FEW140 SCT200 18/M02 A3007 RMK AO2 PK WND 17030/0111 SLP183 T01831022
PALH - Anchorage/Lake H, Alaska, USA
Distance from station: NE 61mi, 99km
Updated: Sat, 21-May-2022 4:53pm AKDT
NOT Current
Clear
Clear
 Wind from E
Wind: E 8 mph , 13 km/h, Gust: 24 mph , 39 km/h
Temperature: 68°F , 20°C
Dew Point: 21°F , -6°C
Humidity: 17%
Barometer: 30.09 inHg , 1019 hPa
Clouds: Clear
Visibility: 10 miles , 16 km
2022/05/22 00:53 PALH 220053Z AUTO 10007G21KT 10SM CLR 20/M06 A3009 RMK AO2 RAE15 SLP192 P0000 T02001056 TSNO
 
PAHO - Homer, Alaska, USA
Distance from station: S 66mi, 106km
Updated: Sat, 21-May-2022 5:53pm AKDT
Few Clouds
Few Clouds
 Wind from E
Wind: E 21 mph , 33 km/h, Gust: 29 mph , 46 km/h
Temperature: 57°F , 14°C
Dew Point: 27°F , -3°C
Humidity: 31%
Barometer: 30.01 inHg , 1016.3 hPa
Clouds: Few Clouds
Visibility: 10 miles , 16 km
Cloud details: Few Clouds 12000 ft
2022/05/22 01:53 PAHO 220153Z 08018G25KT 10SM FEW120 14/M03 A3001 RMK AO2 PK WND 09029/0124 SLP164 T01441033
PAMR - Anchorage/Merril, Alaska, USA
Distance from station: NE 66mi, 106km
Updated: Sat, 21-May-2022 5:53pm AKDT
Clear
Clear
 Wind from calm
Wind: Calm
Temperature: 70°F , 21°C
Dew Point: 21°F , -6°C
Humidity: 16%
Barometer: 30.07 inHg , 1018.3 hPa
Clouds: Clear
Visibility: 10 miles , 16 km
2022/05/22 01:53 PAMR 220153Z 00000KT 10SM CLR 21/M06 A3007 RMK AO2 SLP184 T02061061
 
PAED - Elmendorf Afb, Alaska, USA
Distance from station: NE 69mi, 110km
Updated: Sat, 21-May-2022 5:56pm AKDT
Clear
Clear
 Wind from NW
Wind: NW 8 mph , 13 km/h
Temperature: 70°F , 21°C
Dew Point: 27°F , -3°C
Humidity: 20%
Barometer: 30.06 inHg , 1017.9 hPa
Clouds: Clear
Visibility: 10 miles , 16 km
2022/05/22 01:56 PAED 220156Z AUTO 31007KT 10SM CLR 21/M03 A3006 RMK AO2 SLP175 T02061032 $
PAWD - Seward, Alaska, USA
Distance from station: ESE 71mi, 115km
Updated: Sat, 21-May-2022 5:53pm AKDT
Clear
Clear
 Wind from S
Wind: S 8 mph , 13 km/h
Temperature: 63°F , 17°C
Dew Point: 28°F , -2°C
Humidity: 27%
Barometer: 30.09 inHg , 1019 hPa
Clouds: Clear
Visibility: 10 miles , 16 km
2022/05/22 01:53 PAWD 220153Z AUTO 19007KT 10SM CLR 17/M02 A3009 RMK AO2 SLP191 T01671017 TSNO
 
PASC - Deadhorse, Alaska, USA
Distance from station: ENE 670mi, 1078km
Updated: Sat, 21-May-2022 6:11pm AKDT
Overcast
Overcast
 Wind from NNE
Wind: NNE 10 mph , 17 km/h
Temperature: 30°F , -1°C
Wind Chill: 21°F , -6°C
Dew Point: 27°F , -3°C
Humidity: 86%
Barometer: 30.43 inHg , 1030.5 hPa
Clouds: Overcast
Visibility: 10 miles , 16 km
Cloud details: Mostly cloudy 900 ft
Overcast 1500 ft
2022/05/22 02:11 PASC 220211Z 03009KT 10SM BKN009 OVC015 M01/M03 A3043 RMK AO2 T10111033 $
PAAD - Point Thomson, Alaska, USA
Distance from station: ENE 680mi, 1094km
Updated: Sat, 21-May-2022 6:15pm AKDT
Overcast
Overcast
 Wind from NNE
Wind: NNE 7 mph , 11 km/h
Temperature: 28°F , -2°C
Wind Chill: 21°F , -6°C
Dew Point: 27°F , -3°C
Humidity: 93%
Barometer: 30.42 inHg , 1030.1 hPa
Clouds: Overcast
Visibility: 10 miles , 16 km
Cloud details: Overcast 500 ft
2022/05/22 02:15 PAAD 220215Z AUTO 03006KT 10SM OVC005 M02/M03 A3042 RMK AO2 T10161026


kenaipeople.com website

Dans Automotive

Lower Peninsula Power Sports

Freddies RoadHouse

Alaska Weather Net